sensor_id;sensor_type;location;lat;lon;timestamp;temperature;humidity
46676;DHT22;32412;51.478;5.694;2023-06-19T00:01:59;22.50;99.90
46676;DHT22;32412;51.478;5.694;2023-06-19T00:04:25;22.50;99.90
46676;DHT22;32412;51.478;5.694;2023-06-19T00:06:52;22.50;99.90
46676;DHT22;32412;51.478;5.694;2023-06-19T00:09:18;22.50;99.90
46676;DHT22;32412;51.478;5.694;2023-06-19T00:11:44;22.50;99.90
46676;DHT22;32412;51.478;5.694;2023-06-19T00:14:10;22.50;99.90
46676;DHT22;32412;51.478;5.694;2023-06-19T00:16:35;22.50;99.90
46676;DHT22;32412;51.478;5.694;2023-06-19T00:19:01;22.50;99.90
46676;DHT22;32412;51.478;5.694;2023-06-19T00:21:29;22.50;99.90
46676;DHT22;32412;51.478;5.694;2023-06-19T00:23:55;22.50;99.90
46676;DHT22;32412;51.478;5.694;2023-06-19T00:26:21;22.50;99.90
46676;DHT22;32412;51.478;5.694;2023-06-19T00:28:51;22.50;99.90
46676;DHT22;32412;51.478;5.694;2023-06-19T00:31:17;22.50;99.90
46676;DHT22;32412;51.478;5.694;2023-06-19T00:33:47;22.40;99.90
46676;DHT22;32412;51.478;5.694;2023-06-19T00:36:16;22.40;99.90
46676;DHT22;32412;51.478;5.694;2023-06-19T00:38:45;22.40;99.90
46676;DHT22;32412;51.478;5.694;2023-06-19T00:41:12;22.30;99.90
46676;DHT22;32412;51.478;5.694;2023-06-19T00:43:37;22.20;99.90
46676;DHT22;32412;51.478;5.694;2023-06-19T00:46:06;22.10;99.90
46676;DHT22;32412;51.478;5.694;2023-06-19T00:48:32;22.10;99.90
46676;DHT22;32412;51.478;5.694;2023-06-19T00:50:59;22.00;99.90
46676;DHT22;32412;51.478;5.694;2023-06-19T00:53:25;22.00;99.90
46676;DHT22;32412;51.478;5.694;2023-06-19T00:55:53;21.80;99.90
46676;DHT22;32412;51.478;5.694;2023-06-19T00:58:22;21.80;99.90
46676;DHT22;32412;51.478;5.694;2023-06-19T01:00:48;21.80;99.90
46676;DHT22;32412;51.478;5.694;2023-06-19T01:03:15;21.70;99.90
46676;DHT22;32412;51.478;5.694;2023-06-19T01:05:41;21.60;99.90
46676;DHT22;32412;51.478;5.694;2023-06-19T01:11:06;21.40;99.90
46676;DHT22;32412;51.478;5.694;2023-06-19T01:13:45;21.30;99.90
46676;DHT22;32412;51.478;5.694;2023-06-19T01:16:13;21.20;99.90
46676;DHT22;32412;51.478;5.694;2023-06-19T01:18:39;21.20;99.90
46676;DHT22;32412;51.478;5.694;2023-06-19T01:21:14;21.20;99.90
46676;DHT22;32412;51.478;5.694;2023-06-19T01:23:40;21.10;99.90
46676;DHT22;32412;51.478;5.694;2023-06-19T01:26:10;21.20;99.90
46676;DHT22;32412;51.478;5.694;2023-06-19T01:28:39;21.20;99.90
46676;DHT22;32412;51.478;5.694;2023-06-19T01:31:16;21.10;99.90
46676;DHT22;32412;51.478;5.694;2023-06-19T01:33:45;21.10;99.90
46676;DHT22;32412;51.478;5.694;2023-06-19T01:36:11;21.10;99.90
46676;DHT22;32412;51.478;5.694;2023-06-19T01:38:38;21.00;99.90
46676;DHT22;32412;51.478;5.694;2023-06-19T01:41:06;21.00;99.90
46676;DHT22;32412;51.478;5.694;2023-06-19T01:43:32;20.90;99.90
46676;DHT22;32412;51.478;5.694;2023-06-19T01:46:01;20.90;99.90
46676;DHT22;32412;51.478;5.694;2023-06-19T01:48:27;20.90;99.90
46676;DHT22;32412;51.478;5.694;2023-06-19T01:50:53;20.70;99.90
46676;DHT22;32412;51.478;5.694;2023-06-19T01:53:19;20.70;99.90
46676;DHT22;32412;51.478;5.694;2023-06-19T01:55:44;20.60;99.90
46676;DHT22;32412;51.478;5.694;2023-06-19T01:58:10;20.50;99.90
46676;DHT22;32412;51.478;5.694;2023-06-19T02:00:35;20.40;99.90
46676;DHT22;32412;51.478;5.694;2023-06-19T02:03:03;20.30;99.90
46676;DHT22;32412;51.478;5.694;2023-06-19T02:05:31;20.30;99.90
46676;DHT22;32412;51.478;5.694;2023-06-19T02:07:57;20.20;99.90
46676;DHT22;32412;51.478;5.694;2023-06-19T02:10:23;20.20;99.90
46676;DHT22;32412;51.478;5.694;2023-06-19T02:12:49;20.10;99.90
46676;DHT22;32412;51.478;5.694;2023-06-19T02:15:15;20.00;99.90
46676;DHT22;32412;51.478;5.694;2023-06-19T02:17:40;19.90;99.90
46676;DHT22;32412;51.478;5.694;2023-06-19T02:20:08;19.90;99.90
46676;DHT22;32412;51.478;5.694;2023-06-19T02:22:38;19.90;99.90
46676;DHT22;32412;51.478;5.694;2023-06-19T02:25:04;19.90;99.90
46676;DHT22;32412;51.478;5.694;2023-06-19T02:27:30;19.90;99.90
46676;DHT22;32412;51.478;5.694;2023-06-19T02:29:56;19.90;99.90
46676;DHT22;32412;51.478;5.694;2023-06-19T02:32:21;19.80;99.90
46676;DHT22;32412;51.478;5.694;2023-06-19T02:34:47;19.80;99.90
46676;DHT22;32412;51.478;5.694;2023-06-19T02:37:12;19.80;99.90
46676;DHT22;32412;51.478;5.694;2023-06-19T02:39:38;19.80;99.90
46676;DHT22;32412;51.478;5.694;2023-06-19T02:42:04;19.80;99.90
46676;DHT22;32412;51.478;5.694;2023-06-19T02:44:30;19.80;99.90
46676;DHT22;32412;51.478;5.694;2023-06-19T02:46:55;19.80;99.90
46676;DHT22;32412;51.478;5.694;2023-06-19T02:49:21;19.80;99.90
46676;DHT22;32412;51.478;5.694;2023-06-19T02:51:46;19.70;99.90
46676;DHT22;32412;51.478;5.694;2023-06-19T02:54:12;19.60;99.90
46676;DHT22;32412;51.478;5.694;2023-06-19T02:56:38;19.60;99.90
46676;DHT22;32412;51.478;5.694;2023-06-19T02:59:04;19.50;99.90
46676;DHT22;32412;51.478;5.694;2023-06-19T03:01:30;19.40;99.90
46676;DHT22;32412;51.478;5.694;2023-06-19T03:03:56;19.40;99.90
46676;DHT22;32412;51.478;5.694;2023-06-19T03:06:21;19.30;99.90
46676;DHT22;32412;51.478;5.694;2023-06-19T03:08:47;19.30;99.90
46676;DHT22;32412;51.478;5.694;2023-06-19T03:11:13;19.20;99.90
46676;DHT22;32412;51.478;5.694;2023-06-19T03:13:51;19.20;99.90
46676;DHT22;32412;51.478;5.694;2023-06-19T03:16:18;19.10;99.90
46676;DHT22;32412;51.478;5.694;2023-06-19T03:18:44;19.10;99.90
46676;DHT22;32412;51.478;5.694;2023-06-19T03:21:17;19.10;99.90
46676;DHT22;32412;51.478;5.694;2023-06-19T03:23:45;19.00;99.90
46676;DHT22;32412;51.478;5.694;2023-06-19T03:26:10;18.90;99.90
46676;DHT22;32412;51.478;5.694;2023-06-19T03:28:36;18.90;99.90
46676;DHT22;32412;51.478;5.694;2023-06-19T03:31:02;18.90;99.90
46676;DHT22;32412;51.478;5.694;2023-06-19T03:33:28;18.90;99.90
46676;DHT22;32412;51.478;5.694;2023-06-19T03:35:54;18.90;99.90
46676;DHT22;32412;51.478;5.694;2023-06-19T03:38:20;18.90;99.90
46676;DHT22;32412;51.478;5.694;2023-06-19T03:40:45;18.90;99.90
46676;DHT22;32412;51.478;5.694;2023-06-19T03:43:11;19.00;99.90
46676;DHT22;32412;51.478;5.694;2023-06-19T03:45:37;19.00;99.90
46676;DHT22;32412;51.478;5.694;2023-06-19T03:48:03;19.00;99.90
46676;DHT22;32412;51.478;5.694;2023-06-19T03:50:28;19.00;99.90
46676;DHT22;32412;51.478;5.694;2023-06-19T03:52:54;19.10;99.90
46676;DHT22;32412;51.478;5.694;2023-06-19T03:55:20;19.10;99.90
46676;DHT22;32412;51.478;5.694;2023-06-19T03:57:46;19.20;99.90
46676;DHT22;32412;51.478;5.694;2023-06-19T04:00:13;19.20;99.90
46676;DHT22;32412;51.478;5.694;2023-06-19T04:02:39;19.20;99.90
46676;DHT22;32412;51.478;5.694;2023-06-19T04:05:05;19.20;99.90
46676;DHT22;32412;51.478;5.694;2023-06-19T04:07:31;19.10;99.90
46676;DHT22;32412;51.478;5.694;2023-06-19T04:09:58;19.20;99.90
46676;DHT22;32412;51.478;5.694;2023-06-19T04:12:23;19.20;99.90
46676;DHT22;32412;51.478;5.694;2023-06-19T04:14:49;19.20;99.90
46676;DHT22;32412;51.478;5.694;2023-06-19T04:17:15;19.30;99.90
46676;DHT22;32412;51.478;5.694;2023-06-19T04:19:41;19.30;99.90
46676;DHT22;32412;51.478;5.694;2023-06-19T04:22:07;19.40;99.90
46676;DHT22;32412;51.478;5.694;2023-06-19T04:24:33;19.40;99.90
46676;DHT22;32412;51.478;5.694;2023-06-19T04:26:58;19.40;99.90
46676;DHT22;32412;51.478;5.694;2023-06-19T04:29:24;19.50;99.90
46676;DHT22;32412;51.478;5.694;2023-06-19T04:31:50;19.50;99.90
46676;DHT22;32412;51.478;5.694;2023-06-19T04:34:17;19.50;99.90
46676;DHT22;32412;51.478;5.694;2023-06-19T04:36:47;19.60;99.90
46676;DHT22;32412;51.478;5.694;2023-06-19T04:39:12;19.60;99.90
46676;DHT22;32412;51.478;5.694;2023-06-19T04:41:38;19.60;99.90
46676;DHT22;32412;51.478;5.694;2023-06-19T04:44:05;19.60;99.90
46676;DHT22;32412;51.478;5.694;2023-06-19T04:46:31;19.60;99.90
46676;DHT22;32412;51.478;5.694;2023-06-19T04:48:57;19.70;99.90
46676;DHT22;32412;51.478;5.694;2023-06-19T04:51:22;19.70;99.90
46676;DHT22;32412;51.478;5.694;2023-06-19T04:53:48;19.80;99.90
46676;DHT22;32412;51.478;5.694;2023-06-19T04:56:14;19.80;99.90
46676;DHT22;32412;51.478;5.694;2023-06-19T04:58:41;19.80;99.90
46676;DHT22;32412;51.478;5.694;2023-06-19T05:01:15;19.90;99.90
46676;DHT22;32412;51.478;5.694;2023-06-19T05:03:42;19.90;99.90
46676;DHT22;32412;51.478;5.694;2023-06-19T05:06:08;19.90;99.90
46676;DHT22;32412;51.478;5.694;2023-06-19T05:08:34;19.90;99.90
46676;DHT22;32412;51.478;5.694;2023-06-19T05:11:00;19.90;99.90
46676;DHT22;32412;51.478;5.694;2023-06-19T05:13:25;20.00;99.90
46676;DHT22;32412;51.478;5.694;2023-06-19T05:15:51;20.10;99.90
46676;DHT22;32412;51.478;5.694;2023-06-19T05:18:17;20.10;99.90
46676;DHT22;32412;51.478;5.694;2023-06-19T05:20:43;20.10;99.90
46676;DHT22;32412;51.478;5.694;2023-06-19T05:23:09;20.20;99.90
46676;DHT22;32412;51.478;5.694;2023-06-19T05:25:35;20.30;99.90
46676;DHT22;32412;51.478;5.694;2023-06-19T05:28:01;20.30;99.90
46676;DHT22;32412;51.478;5.694;2023-06-19T05:30:27;20.40;99.90
46676;DHT22;32412;51.478;5.694;2023-06-19T05:32:52;20.40;99.90
46676;DHT22;32412;51.478;5.694;2023-06-19T05:35:18;20.40;99.90
46676;DHT22;32412;51.478;5.694;2023-06-19T05:37:44;20.40;99.90
46676;DHT22;32412;51.478;5.694;2023-06-19T05:40:10;20.40;99.90
46676;DHT22;32412;51.478;5.694;2023-06-19T05:42:36;20.40;99.90
46676;DHT22;32412;51.478;5.694;2023-06-19T05:45:03;20.40;99.90
46676;DHT22;32412;51.478;5.694;2023-06-19T05:47:29;20.50;99.90
46676;DHT22;32412;51.478;5.694;2023-06-19T05:49:56;20.60;99.90
46676;DHT22;32412;51.478;5.694;2023-06-19T05:52:22;20.60;99.90
46676;DHT22;32412;51.478;5.694;2023-06-19T05:54:48;20.60;99.90
46676;DHT22;32412;51.478;5.694;2023-06-19T05:57:14;20.60;99.90
46676;DHT22;32412;51.478;5.694;2023-06-19T05:59:42;20.70;99.90
46676;DHT22;32412;51.478;5.694;2023-06-19T06:02:07;20.70;99.90
46676;DHT22;32412;51.478;5.694;2023-06-19T06:04:34;20.70;99.90
46676;DHT22;32412;51.478;5.694;2023-06-19T06:07:03;20.70;99.90
46676;DHT22;32412;51.478;5.694;2023-06-19T06:09:29;20.70;99.90
46676;DHT22;32412;51.478;5.694;2023-06-19T06:11:55;20.80;99.90
46676;DHT22;32412;51.478;5.694;2023-06-19T06:14:21;20.80;99.90
46676;DHT22;32412;51.478;5.694;2023-06-19T06:16:46;20.70;99.90
46676;DHT22;32412;51.478;5.694;2023-06-19T06:19:12;20.60;99.90
46676;DHT22;32412;51.478;5.694;2023-06-19T06:21:37;20.50;99.90
46676;DHT22;32412;51.478;5.694;2023-06-19T06:24:03;20.30;99.90
46676;DHT22;32412;51.478;5.694;2023-06-19T06:26:29;20.30;99.90
46676;DHT22;32412;51.478;5.694;2023-06-19T06:28:55;20.20;99.90
46676;DHT22;32412;51.478;5.694;2023-06-19T06:31:22;20.30;99.90
46676;DHT22;32412;51.478;5.694;2023-06-19T06:33:48;20.40;99.90
46676;DHT22;32412;51.478;5.694;2023-06-19T06:36:18;20.70;99.90
46676;DHT22;32412;51.478;5.694;2023-06-19T06:38:43;20.80;99.90
46676;DHT22;32412;51.478;5.694;2023-06-19T06:41:09;21.20;99.90
46676;DHT22;32412;51.478;5.694;2023-06-19T06:43:35;21.50;99.90
46676;DHT22;32412;51.478;5.694;2023-06-19T06:46:01;21.60;99.90
46676;DHT22;32412;51.478;5.694;2023-06-19T06:48:26;22.00;99.90
46676;DHT22;32412;51.478;5.694;2023-06-19T06:50:52;22.10;99.90
46676;DHT22;32412;51.478;5.694;2023-06-19T06:53:25;22.20;99.90
46676;DHT22;32412;51.478;5.694;2023-06-19T06:55:51;22.20;99.90
46676;DHT22;32412;51.478;5.694;2023-06-19T06:58:17;22.20;99.90
46676;DHT22;32412;51.478;5.694;2023-06-19T07:00:44;22.40;99.90
46676;DHT22;32412;51.478;5.694;2023-06-19T07:03:10;22.30;99.90
46676;DHT22;32412;51.478;5.694;2023-06-19T07:05:36;22.30;99.90
46676;DHT22;32412;51.478;5.694;2023-06-19T07:08:02;22.30;99.90
46676;DHT22;32412;51.478;5.694;2023-06-19T07:10:29;22.40;99.90
46676;DHT22;32412;51.478;5.694;2023-06-19T07:12:55;22.40;99.90
46676;DHT22;32412;51.478;5.694;2023-06-19T07:15:20;22.40;99.90
46676;DHT22;32412;51.478;5.694;2023-06-19T07:17:46;22.40;99.90
46676;DHT22;32412;51.478;5.694;2023-06-19T07:20:12;22.50;99.90
46676;DHT22;32412;51.478;5.694;2023-06-19T07:22:38;22.60;99.90
46676;DHT22;32412;51.478;5.694;2023-06-19T07:25:05;22.70;99.90
46676;DHT22;32412;51.478;5.694;2023-06-19T07:27:31;22.70;99.90
46676;DHT22;32412;51.478;5.694;2023-06-19T07:29:56;22.60;99.90
46676;DHT22;32412;51.478;5.694;2023-06-19T07:32:22;22.80;99.90
46676;DHT22;32412;51.478;5.694;2023-06-19T07:34:48;23.10;99.90
46676;DHT22;32412;51.478;5.694;2023-06-19T07:37:14;23.30;99.90
46676;DHT22;32412;51.478;5.694;2023-06-19T07:39:52;23.40;99.90
46676;DHT22;32412;51.478;5.694;2023-06-19T07:42:18;23.50;99.90
46676;DHT22;32412;51.478;5.694;2023-06-19T07:44:45;23.70;99.90
46676;DHT22;32412;51.478;5.694;2023-06-19T07:47:11;23.90;99.90
46676;DHT22;32412;51.478;5.694;2023-06-19T07:49:37;23.90;99.90
46676;DHT22;32412;51.478;5.694;2023-06-19T07:52:04;23.90;99.90
46676;DHT22;32412;51.478;5.694;2023-06-19T07:54:30;24.00;99.90
46676;DHT22;32412;51.478;5.694;2023-06-19T07:56:55;23.80;99.90
46676;DHT22;32412;51.478;5.694;2023-06-19T07:59:21;23.70;99.90
46676;DHT22;32412;51.478;5.694;2023-06-19T08:01:48;23.70;99.90
46676;DHT22;32412;51.478;5.694;2023-06-19T08:04:14;23.80;99.90
46676;DHT22;32412;51.478;5.694;2023-06-19T08:06:40;23.90;99.90
46676;DHT22;32412;51.478;5.694;2023-06-19T08:09:05;23.90;99.90
46676;DHT22;32412;51.478;5.694;2023-06-19T08:11:31;23.90;99.90
46676;DHT22;32412;51.478;5.694;2023-06-19T08:14:00;24.10;99.90
46676;DHT22;32412;51.478;5.694;2023-06-19T08:16:26;24.40;99.90
46676;DHT22;32412;51.478;5.694;2023-06-19T08:18:52;24.50;99.90
46676;DHT22;32412;51.478;5.694;2023-06-19T08:21:17;24.50;99.90
46676;DHT22;32412;51.478;5.694;2023-06-19T08:23:43;24.50;99.90
46676;DHT22;32412;51.478;5.694;2023-06-19T08:26:10;24.50;99.90
46676;DHT22;32412;51.478;5.694;2023-06-19T08:28:37;24.50;99.90
46676;DHT22;32412;51.478;5.694;2023-06-19T08:31:03;24.70;99.90
46676;DHT22;32412;51.478;5.694;2023-06-19T08:33:28;24.60;99.90
46676;DHT22;32412;51.478;5.694;2023-06-19T08:35:54;25.00;99.90
46676;DHT22;32412;51.478;5.694;2023-06-19T08:38:20;25.20;99.90
46676;DHT22;32412;51.478;5.694;2023-06-19T08:40:46;25.20;99.90
46676;DHT22;32412;51.478;5.694;2023-06-19T08:43:11;24.90;99.90
46676;DHT22;32412;51.478;5.694;2023-06-19T08:45:37;24.70;99.90
46676;DHT22;32412;51.478;5.694;2023-06-19T08:48:04;24.70;99.90
46676;DHT22;32412;51.478;5.694;2023-06-19T08:50:31;24.50;99.90
46676;DHT22;32412;51.478;5.694;2023-06-19T08:52:57;24.60;99.90
46676;DHT22;32412;51.478;5.694;2023-06-19T08:55:23;24.80;99.90
46676;DHT22;32412;51.478;5.694;2023-06-19T08:57:50;25.10;99.90
46676;DHT22;32412;51.478;5.694;2023-06-19T09:00:27;25.10;99.90
46676;DHT22;32412;51.478;5.694;2023-06-19T09:03:00;25.20;99.90
46676;DHT22;32412;51.478;5.694;2023-06-19T09:05:27;24.90;99.90
46676;DHT22;32412;51.478;5.694;2023-06-19T09:07:58;24.80;99.90
46676;DHT22;32412;51.478;5.694;2023-06-19T09:10:26;24.80;99.90
46676;DHT22;32412;51.478;5.694;2023-06-19T09:13:04;25.00;99.90
46676;DHT22;32412;51.478;5.694;2023-06-19T09:15:33;25.50;99.90
46676;DHT22;32412;51.478;5.694;2023-06-19T09:20:27;26.20;99.90
46676;DHT22;32412;51.478;5.694;2023-06-19T09:22:57;26.20;99.90
46676;DHT22;32412;51.478;5.694;2023-06-19T09:25:23;26.20;99.90
46676;DHT22;32412;51.478;5.694;2023-06-19T09:27:50;26.40;99.90
46676;DHT22;32412;51.478;5.694;2023-06-19T09:30:16;26.50;99.90
46676;DHT22;32412;51.478;5.694;2023-06-19T09:32:42;26.60;99.90
46676;DHT22;32412;51.478;5.694;2023-06-19T09:35:07;26.90;99.90
46676;DHT22;32412;51.478;5.694;2023-06-19T09:37:33;26.90;99.90
46676;DHT22;32412;51.478;5.694;2023-06-19T09:40:01;26.60;99.90
46676;DHT22;32412;51.478;5.694;2023-06-19T09:42:38;27.20;99.90
46676;DHT22;32412;51.478;5.694;2023-06-19T09:45:04;27.40;99.90
46676;DHT22;32412;51.478;5.694;2023-06-19T09:47:36;27.90;99.90
46676;DHT22;32412;51.478;5.694;2023-06-19T09:50:03;28.50;98.60
46676;DHT22;32412;51.478;5.694;2023-06-19T09:52:30;28.50;98.30
46676;DHT22;32412;51.478;5.694;2023-06-19T09:54:56;29.00;98.10
46676;DHT22;32412;51.478;5.694;2023-06-19T09:57:23;29.10;97.90
46676;DHT22;32412;51.478;5.694;2023-06-19T09:59:56;28.70;97.70
46676;DHT22;32412;51.478;5.694;2023-06-19T10:02:23;28.40;97.60
46676;DHT22;32412;51.478;5.694;2023-06-19T10:04:52;27.90;97.60
46676;DHT22;32412;51.478;5.694;2023-06-19T10:07:25;28.00;97.40
46676;DHT22;32412;51.478;5.694;2023-06-19T10:10:10;28.40;97.70
46676;DHT22;32412;51.478;5.694;2023-06-19T10:12:45;29.00;96.80
46676;DHT22;32412;51.478;5.694;2023-06-19T10:15:22;29.70;95.80
46676;DHT22;32412;51.478;5.694;2023-06-19T10:17:53;30.10;96.00
46676;DHT22;32412;51.478;5.694;2023-06-19T10:20:31;31.20;95.10
46676;DHT22;32412;51.478;5.694;2023-06-19T10:22:58;31.00;94.80
46676;DHT22;32412;51.478;5.694;2023-06-19T10:25:27;30.80;95.00
46676;DHT22;32412;51.478;5.694;2023-06-19T10:27:53;31.00;94.30
46676;DHT22;32412;51.478;5.694;2023-06-19T10:30:20;31.20;94.40
46676;DHT22;32412;51.478;5.694;2023-06-19T10:32:49;31.40;94.10
46676;DHT22;32412;51.478;5.694;2023-06-19T10:35:16;31.90;93.60
46676;DHT22;32412;51.478;5.694;2023-06-19T10:37:43;32.30;93.40
46676;DHT22;32412;51.478;5.694;2023-06-19T10:40:09;31.80;93.00
46676;DHT22;32412;51.478;5.694;2023-06-19T10:42:43;31.20;92.90
46676;DHT22;32412;51.478;5.694;2023-06-19T10:45:11;31.00;93.30
46676;DHT22;32412;51.478;5.694;2023-06-19T10:47:43;30.70;93.60
46676;DHT22;32412;51.478;5.694;2023-06-19T10:50:11;30.90;93.50
46676;DHT22;32412;51.478;5.694;2023-06-19T10:52:43;30.90;93.00
46676;DHT22;32412;51.478;5.694;2023-06-19T10:55:09;31.00;93.00
46676;DHT22;32412;51.478;5.694;2023-06-19T10:57:35;31.00;92.80
46676;DHT22;32412;51.478;5.694;2023-06-19T11:00:01;30.80;92.90
46676;DHT22;32412;51.478;5.694;2023-06-19T11:02:38;31.10;92.80
46676;DHT22;32412;51.478;5.694;2023-06-19T11:05:05;31.10;92.20
46676;DHT22;32412;51.478;5.694;2023-06-19T11:07:32;31.30;92.40
46676;DHT22;32412;51.478;5.694;2023-06-19T11:09:58;32.00;92.10
46676;DHT22;32412;51.478;5.694;2023-06-19T11:12:24;32.90;91.90
46676;DHT22;32412;51.478;5.694;2023-06-19T11:14:49;33.30;90.60
46676;DHT22;32412;51.478;5.694;2023-06-19T11:17:18;33.40;90.80
46676;DHT22;32412;51.478;5.694;2023-06-19T11:19:47;33.50;89.70
46676;DHT22;32412;51.478;5.694;2023-06-19T11:22:12;34.20;88.30
46676;DHT22;32412;51.478;5.694;2023-06-19T11:25:02;34.60;88.20
46676;DHT22;32412;51.478;5.694;2023-06-19T11:27:30;34.90;87.50
46676;DHT22;32412;51.478;5.694;2023-06-19T11:29:57;34.70;87.90
46676;DHT22;32412;51.478;5.694;2023-06-19T11:32:30;34.90;86.00
46676;DHT22;32412;51.478;5.694;2023-06-19T11:34:56;35.10;86.80
46676;DHT22;32412;51.478;5.694;2023-06-19T11:37:23;35.20;85.80
46676;DHT22;32412;51.478;5.694;2023-06-19T11:39:49;35.10;86.30
46676;DHT22;32412;51.478;5.694;2023-06-19T11:42:16;35.10;85.00
46676;DHT22;32412;51.478;5.694;2023-06-19T11:47:20;34.80;84.50
46676;DHT22;32412;51.478;5.694;2023-06-19T11:49:48;34.80;83.30
46676;DHT22;32412;51.478;5.694;2023-06-19T11:52:14;34.40;82.40
46676;DHT22;32412;51.478;5.694;2023-06-19T11:54:40;34.40;82.80
46676;DHT22;32412;51.478;5.694;2023-06-19T11:57:06;34.30;82.60
46676;DHT22;32412;51.478;5.694;2023-06-19T11:59:31;34.70;82.90
46676;DHT22;32412;51.478;5.694;2023-06-19T12:01:57;35.20;82.00
46676;DHT22;32412;51.478;5.694;2023-06-19T12:04:25;34.70;82.20
46676;DHT22;32412;51.478;5.694;2023-06-19T12:06:52;34.70;83.90
46676;DHT22;32412;51.478;5.694;2023-06-19T12:09:18;35.10;81.00
46676;DHT22;32412;51.478;5.694;2023-06-19T12:11:43;35.40;80.00
46676;DHT22;32412;51.478;5.694;2023-06-19T12:14:09;35.20;77.40
46676;DHT22;32412;51.478;5.694;2023-06-19T12:16:35;34.50;79.10
46676;DHT22;32412;51.478;5.694;2023-06-19T12:19:01;34.60;80.00
46676;DHT22;32412;51.478;5.694;2023-06-19T12:21:26;34.80;80.10
46676;DHT22;32412;51.478;5.694;2023-06-19T12:23:52;35.20;80.60
46676;DHT22;32412;51.478;5.694;2023-06-19T12:26:18;35.90;80.40
46676;DHT22;32412;51.478;5.694;2023-06-19T12:28:44;36.10;78.90
46676;DHT22;32412;51.478;5.694;2023-06-19T12:31:09;36.50;79.80
46676;DHT22;32412;51.478;5.694;2023-06-19T12:33:35;36.90;76.90
46676;DHT22;32412;51.478;5.694;2023-06-19T12:36:02;36.20;77.50
46676;DHT22;32412;51.478;5.694;2023-06-19T12:38:28;36.20;78.20
46676;DHT22;32412;51.478;5.694;2023-06-19T12:40:54;35.80;78.50
46676;DHT22;32412;51.478;5.694;2023-06-19T12:43:19;35.40;78.60
46676;DHT22;32412;51.478;5.694;2023-06-19T12:45:45;35.40;77.70
46676;DHT22;32412;51.478;5.694;2023-06-19T12:48:11;35.40;77.80
46676;DHT22;32412;51.478;5.694;2023-06-19T12:50:37;35.00;77.70
46676;DHT22;32412;51.478;5.694;2023-06-19T12:53:03;34.80;77.50
46676;DHT22;32412;51.478;5.694;2023-06-19T12:55:32;34.40;77.60
46676;DHT22;32412;51.478;5.694;2023-06-19T12:57:57;34.90;77.20
46676;DHT22;32412;51.478;5.694;2023-06-19T13:00:23;35.10;77.60
46676;DHT22;32412;51.478;5.694;2023-06-19T13:02:49;35.10;77.00
46676;DHT22;32412;51.478;5.694;2023-06-19T13:05:15;34.90;77.60
46676;DHT22;32412;51.478;5.694;2023-06-19T13:07:41;34.40;77.80
46676;DHT22;32412;51.478;5.694;2023-06-19T13:10:09;35.10;77.20
46676;DHT22;32412;51.478;5.694;2023-06-19T13:12:35;34.40;75.00
46676;DHT22;32412;51.478;5.694;2023-06-19T13:15:01;34.50;75.70
46676;DHT22;32412;51.478;5.694;2023-06-19T13:17:27;34.40;76.00
46676;DHT22;32412;51.478;5.694;2023-06-19T13:19:52;33.10;75.20
46676;DHT22;32412;51.478;5.694;2023-06-19T13:22:18;32.40;75.20
46676;DHT22;32412;51.478;5.694;2023-06-19T13:24:44;32.00;75.80
46676;DHT22;32412;51.478;5.694;2023-06-19T13:27:10;31.80;75.40
46676;DHT22;32412;51.478;5.694;2023-06-19T13:29:36;30.90;78.10
46676;DHT22;32412;51.478;5.694;2023-06-19T13:32:01;30.40;79.50
46676;DHT22;32412;51.478;5.694;2023-06-19T13:34:27;30.00;80.60
46676;DHT22;32412;51.478;5.694;2023-06-19T13:36:53;29.40;81.30
46676;DHT22;32412;51.478;5.694;2023-06-19T13:39:19;29.00;82.10
46676;DHT22;32412;51.478;5.694;2023-06-19T13:41:45;28.90;82.30
46676;DHT22;32412;51.478;5.694;2023-06-19T13:44:11;28.60;83.10
46676;DHT22;32412;51.478;5.694;2023-06-19T13:46:38;28.50;83.60
46676;DHT22;32412;51.478;5.694;2023-06-19T13:49:04;28.40;83.40
46676;DHT22;32412;51.478;5.694;2023-06-19T13:51:32;28.40;83.80
46676;DHT22;32412;51.478;5.694;2023-06-19T13:53:58;28.40;83.60
46676;DHT22;32412;51.478;5.694;2023-06-19T13:56:24;28.30;83.30
46676;DHT22;32412;51.478;5.694;2023-06-19T13:58:50;28.20;83.40
46676;DHT22;32412;51.478;5.694;2023-06-19T14:01:15;28.30;83.00
46676;DHT22;32412;51.478;5.694;2023-06-19T14:03:41;28.20;83.60
46676;DHT22;32412;51.478;5.694;2023-06-19T14:06:08;28.40;84.10
46676;DHT22;32412;51.478;5.694;2023-06-19T14:08:33;28.30;83.70
46676;DHT22;32412;51.478;5.694;2023-06-19T14:10:59;28.50;83.40
46676;DHT22;32412;51.478;5.694;2023-06-19T14:13:25;28.60;82.70
46676;DHT22;32412;51.478;5.694;2023-06-19T14:15:51;28.50;82.10
46676;DHT22;32412;51.478;5.694;2023-06-19T14:18:18;28.50;81.90
46676;DHT22;32412;51.478;5.694;2023-06-19T14:20:43;28.40;83.50
46676;DHT22;32412;51.478;5.694;2023-06-19T14:23:09;28.30;83.40
46676;DHT22;32412;51.478;5.694;2023-06-19T14:25:35;28.20;83.50
46676;DHT22;32412;51.478;5.694;2023-06-19T14:28:00;28.10;83.70
46676;DHT22;32412;51.478;5.694;2023-06-19T14:30:26;28.20;83.80
46676;DHT22;32412;51.478;5.694;2023-06-19T14:32:52;28.20;84.10
46676;DHT22;32412;51.478;5.694;2023-06-19T14:35:18;28.20;83.60
46676;DHT22;32412;51.478;5.694;2023-06-19T14:37:44;28.00;83.20
46676;DHT22;32412;51.478;5.694;2023-06-19T14:40:10;27.90;84.20
46676;DHT22;32412;51.478;5.694;2023-06-19T14:42:35;27.90;83.10
46676;DHT22;32412;51.478;5.694;2023-06-19T14:45:01;27.90;83.00
46676;DHT22;32412;51.478;5.694;2023-06-19T14:47:27;27.90;83.10
46676;DHT22;32412;51.478;5.694;2023-06-19T14:49:53;28.00;83.50
46676;DHT22;32412;51.478;5.694;2023-06-19T14:52:19;28.20;83.60
46676;DHT22;32412;51.478;5.694;2023-06-19T14:54:48;28.30;82.90
46676;DHT22;32412;51.478;5.694;2023-06-19T14:57:14;28.60;83.40
46676;DHT22;32412;51.478;5.694;2023-06-19T14:59:40;28.80;81.50
46676;DHT22;32412;51.478;5.694;2023-06-19T15:02:06;28.80;81.30
46676;DHT22;32412;51.478;5.694;2023-06-19T15:04:32;28.80;81.70
46676;DHT22;32412;51.478;5.694;2023-06-19T15:06:58;28.80;82.40
46676;DHT22;32412;51.478;5.694;2023-06-19T15:09:24;28.90;82.70
46676;DHT22;32412;51.478;5.694;2023-06-19T15:11:51;28.90;81.90
46676;DHT22;32412;51.478;5.694;2023-06-19T15:14:18;28.90;82.00
46676;DHT22;32412;51.478;5.694;2023-06-19T15:16:44;28.80;82.70
46676;DHT22;32412;51.478;5.694;2023-06-19T15:19:09;28.80;83.10
46676;DHT22;32412;51.478;5.694;2023-06-19T15:21:35;28.70;84.10
46676;DHT22;32412;51.478;5.694;2023-06-19T15:24:01;28.70;83.50
46676;DHT22;32412;51.478;5.694;2023-06-19T15:26:27;28.70;83.60
46676;DHT22;32412;51.478;5.694;2023-06-19T15:28:52;28.50;83.30
46676;DHT22;32412;51.478;5.694;2023-06-19T15:31:22;28.40;83.50
46676;DHT22;32412;51.478;5.694;2023-06-19T15:33:49;28.40;83.20
46676;DHT22;32412;51.478;5.694;2023-06-19T15:36:15;28.20;83.30